sensor_id;sensor_type;location;lat;lon;timestamp;pressure;altitude;pressure_sealevel;temperature;humidity
69570;BME280;56781;42.292;23.146;2023-04-20T00:01:42;95234.97;;;7.55;100.00
69570;BME280;56781;42.292;23.146;2023-04-20T00:04:09;95222.75;;;7.54;100.00
69570;BME280;56781;42.292;23.146;2023-04-20T00:06:37;95249.38;;;7.73;100.00
69570;BME280;56781;42.292;23.146;2023-04-20T00:09:04;95217.50;;;7.68;100.00
69570;BME280;56781;42.292;23.146;2023-04-20T00:11:31;95217.03;;;7.61;100.00
69570;BME280;56781;42.292;23.146;2023-04-20T00:13:58;95222.56;;;7.65;100.00
69570;BME280;56781;42.292;23.146;2023-04-20T00:16:25;95220.88;;;7.74;100.00
69570;BME280;56781;42.292;23.146;2023-04-20T00:18:52;95213.28;;;7.62;100.00
69570;BME280;56781;42.292;23.146;2023-04-20T00:21:20;95209.91;;;7.57;100.00
69570;BME280;56781;42.292;23.146;2023-04-20T00:23:50;95212.63;;;7.51;100.00
69570;BME280;56781;42.292;23.146;2023-04-20T00:26:17;95207.69;;;7.45;100.00
69570;BME280;56781;42.292;23.146;2023-04-20T00:28:44;95194.50;;;7.53;100.00
69570;BME280;56781;42.292;23.146;2023-04-20T00:31:12;95204.00;;;7.60;100.00
69570;BME280;56781;42.292;23.146;2023-04-20T00:33:39;95210.78;;;7.71;100.00
69570;BME280;56781;42.292;23.146;2023-04-20T00:36:06;95204.44;;;7.67;100.00
69570;BME280;56781;42.292;23.146;2023-04-20T00:38:34;95196.53;;;7.62;100.00
69570;BME280;56781;42.292;23.146;2023-04-20T00:41:01;95194.94;;;7.61;100.00
69570;BME280;56781;42.292;23.146;2023-04-20T00:43:28;95194.13;;;7.03;100.00
69570;BME280;56781;42.292;23.146;2023-04-20T00:45:55;95194.84;;;7.09;100.00
69570;BME280;56781;42.292;23.146;2023-04-20T00:48:22;95194.28;;;6.88;100.00
69570;BME280;56781;42.292;23.146;2023-04-20T00:50:50;95208.47;;;7.02;100.00
69570;BME280;56781;42.292;23.146;2023-04-20T00:53:18;95201.06;;;6.99;100.00
69570;BME280;56781;42.292;23.146;2023-04-20T00:55:45;95202.31;;;6.83;100.00
69570;BME280;56781;42.292;23.146;2023-04-20T00:58:13;95198.72;;;6.74;100.00
69570;BME280;56781;42.292;23.146;2023-04-20T01:00:40;95188.28;;;6.53;100.00
69570;BME280;56781;42.292;23.146;2023-04-20T01:03:07;95198.88;;;6.82;100.00
69570;BME280;56781;42.292;23.146;2023-04-20T01:05:35;95187.25;;;6.97;100.00
69570;BME280;56781;42.292;23.146;2023-04-20T01:08:02;95192.41;;;7.13;100.00
69570;BME280;56781;42.292;23.146;2023-04-20T01:10:29;95198.16;;;7.20;100.00
69570;BME280;56781;42.292;23.146;2023-04-20T01:12:57;95190.66;;;7.22;100.00
69570;BME280;56781;42.292;23.146;2023-04-20T01:15:24;95199.41;;;7.27;100.00
69570;BME280;56781;42.292;23.146;2023-04-20T01:17:52;95191.50;;;7.41;100.00
69570;BME280;56781;42.292;23.146;2023-04-20T01:20:19;95177.53;;;7.49;100.00
69570;BME280;56781;42.292;23.146;2023-04-20T01:22:50;95192.63;;;7.35;100.00
69570;BME280;56781;42.292;23.146;2023-04-20T01:25:19;95182.03;;;7.11;100.00
69570;BME280;56781;42.292;23.146;2023-04-20T01:27:46;95178.41;;;7.02;100.00
69570;BME280;56781;42.292;23.146;2023-04-20T01:30:14;95188.63;;;7.14;100.00
69570;BME280;56781;42.292;23.146;2023-04-20T01:32:43;95177.34;;;7.22;100.00
69570;BME280;56781;42.292;23.146;2023-04-20T01:35:10;95188.00;;;7.22;100.00
69570;BME280;56781;42.292;23.146;2023-04-20T01:37:39;95194.41;;;7.21;100.00
69570;BME280;56781;42.292;23.146;2023-04-20T01:40:10;95182.25;;;7.15;100.00
69570;BME280;56781;42.292;23.146;2023-04-20T01:42:38;95187.00;;;7.18;100.00
69570;BME280;56781;42.292;23.146;2023-04-20T01:45:06;95177.34;;;7.22;100.00
69570;BME280;56781;42.292;23.146;2023-04-20T01:47:33;95187.66;;;7.28;100.00
69570;BME280;56781;42.292;23.146;2023-04-20T01:50:00;95173.63;;;7.23;100.00
69570;BME280;56781;42.292;23.146;2023-04-20T01:52:27;95167.72;;;7.26;100.00
69570;BME280;56781;42.292;23.146;2023-04-20T01:54:54;95170.19;;;7.22;100.00
69570;BME280;56781;42.292;23.146;2023-04-20T01:57:22;95163.47;;;7.06;100.00
69570;BME280;56781;42.292;23.146;2023-04-20T01:59:49;95201.75;;;7.29;100.00
69570;BME280;56781;42.292;23.146;2023-04-20T02:02:16;95186.09;;;7.27;100.00
69570;BME280;56781;42.292;23.146;2023-04-20T02:04:44;95170.25;;;7.36;100.00
69570;BME280;56781;42.292;23.146;2023-04-20T02:07:11;95174.44;;;7.42;100.00
69570;BME280;56781;42.292;23.146;2023-04-20T02:09:38;95168.59;;;7.40;100.00
69570;BME280;56781;42.292;23.146;2023-04-20T02:12:05;95168.44;;;7.50;100.00
69570;BME280;56781;42.292;23.146;2023-04-20T02:14:32;95163.84;;;7.56;100.00
69570;BME280;56781;42.292;23.146;2023-04-20T02:17:01;95163.78;;;7.42;100.00
69570;BME280;56781;42.292;23.146;2023-04-20T02:19:28;95170.75;;;7.00;100.00
69570;BME280;56781;42.292;23.146;2023-04-20T02:21:55;95166.41;;;7.04;100.00
69570;BME280;56781;42.292;23.146;2023-04-20T02:24:22;95172.41;;;7.15;100.00
69570;BME280;56781;42.292;23.146;2023-04-20T02:26:49;95190.19;;;7.20;100.00
69570;BME280;56781;42.292;23.146;2023-04-20T02:29:17;95167.09;;;6.91;100.00
69570;BME280;56781;42.292;23.146;2023-04-20T02:31:44;95182.75;;;6.98;100.00
69570;BME280;56781;42.292;23.146;2023-04-20T02:34:12;95176.34;;;7.18;100.00
69570;BME280;56781;42.292;23.146;2023-04-20T02:36:39;95183.72;;;7.26;100.00
69570;BME280;56781;42.292;23.146;2023-04-20T02:39:07;95178.66;;;7.24;100.00
69570;BME280;56781;42.292;23.146;2023-04-20T02:41:34;95170.91;;;7.28;100.00
69570;BME280;56781;42.292;23.146;2023-04-20T02:44:01;95181.13;;;7.40;100.00
69570;BME280;56781;42.292;23.146;2023-04-20T02:46:28;95183.78;;;7.59;100.00
69570;BME280;56781;42.292;23.146;2023-04-20T02:48:55;95178.38;;;7.64;100.00
69570;BME280;56781;42.292;23.146;2023-04-20T02:51:23;95177.88;;;7.62;100.00
69570;BME280;56781;42.292;23.146;2023-04-20T02:53:50;95178.47;;;7.59;100.00
69570;BME280;56781;42.292;23.146;2023-04-20T02:56:17;95200.34;;;7.74;100.00
69570;BME280;56781;42.292;23.146;2023-04-20T02:58:44;95177.88;;;7.62;100.00
69570;BME280;56781;42.292;23.146;2023-04-20T03:01:13;95175.66;;;7.69;100.00
69570;BME280;56781;42.292;23.146;2023-04-20T03:03:41;95175.72;;;7.64;100.00
69570;BME280;56781;42.292;23.146;2023-04-20T03:06:09;95199.25;;;7.57;100.00
69570;BME280;56781;42.292;23.146;2023-04-20T03:08:36;95204.72;;;7.46;100.00
69570;BME280;56781;42.292;23.146;2023-04-20T03:11:03;95188.75;;;7.46;100.00
69570;BME280;56781;42.292;23.146;2023-04-20T03:13:30;95208.34;;;7.55;100.00
69570;BME280;56781;42.292;23.146;2023-04-20T03:15:57;95193.66;;;7.39;100.00
69570;BME280;56781;42.292;23.146;2023-04-20T03:18:25;95189.31;;;7.43;100.00
69570;BME280;56781;42.292;23.146;2023-04-20T03:20:52;95196.75;;;7.27;100.00
69570;BME280;56781;42.292;23.146;2023-04-20T03:23:19;95213.75;;;7.07;100.00
69570;BME280;56781;42.292;23.146;2023-04-20T03:25:46;95197.41;;;6.95;100.00
69570;BME280;56781;42.292;23.146;2023-04-20T03:28:15;95185.88;;;7.00;100.00
69570;BME280;56781;42.292;23.146;2023-04-20T03:30:42;95192.03;;;7.00;100.00
69570;BME280;56781;42.292;23.146;2023-04-20T03:33:09;95197.09;;;6.97;100.00
69570;BME280;56781;42.292;23.146;2023-04-20T03:35:36;95206.38;;;6.99;100.00
69570;BME280;56781;42.292;23.146;2023-04-20T03:38:05;95182.44;;;6.99;100.00
69570;BME280;56781;42.292;23.146;2023-04-20T03:40:32;95197.25;;;7.05;100.00
69570;BME280;56781;42.292;23.146;2023-04-20T03:42:59;95190.00;;;6.92;100.00
69570;BME280;56781;42.292;23.146;2023-04-20T03:45:26;95202.47;;;6.92;100.00
69570;BME280;56781;42.292;23.146;2023-04-20T03:47:53;95199.16;;;6.81;100.00
69570;BME280;56781;42.292;23.146;2023-04-20T03:50:21;95202.31;;;6.83;100.00
69570;BME280;56781;42.292;23.146;2023-04-20T03:52:48;95200.63;;;6.92;100.00
69570;BME280;56781;42.292;23.146;2023-04-20T03:55:15;95197.78;;;7.07;100.00
69570;BME280;56781;42.292;23.146;2023-04-20T03:57:42;95201.81;;;7.24;100.00
69570;BME280;56781;42.292;23.146;2023-04-20T04:00:10;95204.09;;;7.36;100.00
69570;BME280;56781;42.292;23.146;2023-04-20T04:02:38;95204.09;;;7.36;100.00
69570;BME280;56781;42.292;23.146;2023-04-20T04:05:06;95210.84;;;7.47;100.00
69570;BME280;56781;42.292;23.146;2023-04-20T04:07:33;95231.66;;;7.64;100.00
69570;BME280;56781;42.292;23.146;2023-04-20T04:10:00;95204.16;;;7.49;100.00
69570;BME280;56781;42.292;23.146;2023-04-20T04:12:30;95215.25;;;7.57;100.00
69570;BME280;56781;42.292;23.146;2023-04-20T04:14:57;95226.41;;;7.59;100.00
69570;BME280;56781;42.292;23.146;2023-04-20T04:17:24;95221.72;;;7.50;100.00
69570;BME280;56781;42.292;23.146;2023-04-20T04:19:51;95221.16;;;7.53;100.00
69570;BME280;56781;42.292;23.146;2023-04-20T04:22:18;95212.50;;;7.43;100.00
69570;BME280;56781;42.292;23.146;2023-04-20T04:24:46;95208.78;;;7.63;100.00
69570;BME280;56781;42.292;23.146;2023-04-20T04:27:14;95218.28;;;7.69;100.00
69570;BME280;56781;42.292;23.146;2023-04-20T04:29:41;95226.84;;;7.66;100.00
69570;BME280;56781;42.292;23.146;2023-04-20T04:32:10;95239.78;;;7.53;100.00
69570;BME280;56781;42.292;23.146;2023-04-20T04:34:38;95217.75;;;7.29;100.00
69570;BME280;56781;42.292;23.146;2023-04-20T04:37:05;95223.63;;;7.26;100.00
69570;BME280;56781;42.292;23.146;2023-04-20T04:39:32;95219.25;;;7.35;100.00
69570;BME280;56781;42.292;23.146;2023-04-20T04:41:59;95226.66;;;7.38;100.00
69570;BME280;56781;42.292;23.146;2023-04-20T04:44:29;95224.91;;;7.52;100.00
69570;BME280;56781;42.292;23.146;2023-04-20T04:46:57;95227.63;;;7.66;100.00
69570;BME280;56781;42.292;23.146;2023-04-20T04:49:24;95228.63;;;7.51;100.00
69570;BME280;56781;42.292;23.146;2023-04-20T04:51:52;95227.75;;;7.37;100.00
69570;BME280;56781;42.292;23.146;2023-04-20T04:54:19;95239.72;;;7.40;100.00
69570;BME280;56781;42.292;23.146;2023-04-20T04:56:46;95243.72;;;7.37;100.00
69570;BME280;56781;42.292;23.146;2023-04-20T04:59:13;95256.06;;;7.52;100.00
69570;BME280;56781;42.292;23.146;2023-04-20T05:01:40;95243.59;;;7.47;100.00
69570;BME280;56781;42.292;23.146;2023-04-20T05:04:08;95256.84;;;7.52;100.00
69570;BME280;56781;42.292;23.146;2023-04-20T05:06:35;95239.91;;;7.43;100.00
69570;BME280;56781;42.292;23.146;2023-04-20T05:09:02;95246.94;;;7.58;100.00
69570;BME280;56781;42.292;23.146;2023-04-20T05:11:30;95245.13;;;7.72;100.00
69570;BME280;56781;42.292;23.146;2023-04-20T05:13:57;95246.69;;;7.73;100.00
69570;BME280;56781;42.292;23.146;2023-04-20T05:16:24;95249.34;;;7.92;100.00
69570;BME280;56781;42.292;23.146;2023-04-20T05:18:51;95268.22;;;8.15;100.00
69570;BME280;56781;42.292;23.146;2023-04-20T05:21:18;95249.22;;;8.03;100.00
69570;BME280;56781;42.292;23.146;2023-04-20T05:23:46;95248.47;;;8.16;100.00
69570;BME280;56781;42.292;23.146;2023-04-20T05:26:13;95244.69;;;8.36;100.00
69570;BME280;56781;42.292;23.146;2023-04-20T05:28:40;95270.56;;;8.54;100.00
69570;BME280;56781;42.292;23.146;2023-04-20T05:31:07;95262.34;;;8.51;100.00
69570;BME280;56781;42.292;23.146;2023-04-20T05:33:35;95258.41;;;8.48;100.00
69570;BME280;56781;42.292;23.146;2023-04-20T05:36:02;95259.59;;;8.56;100.00
69570;BME280;56781;42.292;23.146;2023-04-20T05:38:29;95251.22;;;8.76;100.00
69570;BME280;56781;42.292;23.146;2023-04-20T05:40:56;95254.03;;;8.99;100.00
69570;BME280;56781;42.292;23.146;2023-04-20T05:43:23;95265.22;;;9.28;100.00
69570;BME280;56781;42.292;23.146;2023-04-20T05:45:50;95260.94;;;9.27;100.00
69570;BME280;56781;42.292;23.146;2023-04-20T05:48:18;95247.19;;;9.48;100.00
69570;BME280;56781;42.292;23.146;2023-04-20T05:50:45;95251.97;;;9.73;100.00
69570;BME280;56781;42.292;23.146;2023-04-20T06:06:31;95260.72;;;9.65;100.00
69570;BME280;56781;42.292;23.146;2023-04-20T06:08:58;95276.22;;;9.77;100.00
69570;BME280;56781;42.292;23.146;2023-04-20T06:11:25;95260.66;;;9.43;100.00
69570;BME280;56781;42.292;23.146;2023-04-20T06:13:52;95270.63;;;9.51;100.00
69570;BME280;56781;42.292;23.146;2023-04-20T06:16:19;95281.03;;;9.39;100.00
69570;BME280;56781;42.292;23.146;2023-04-20T06:18:46;95254.63;;;9.23;100.00
69570;BME280;56781;42.292;23.146;2023-04-20T06:21:13;95249.56;;;9.36;100.00
69570;BME280;56781;42.292;23.146;2023-04-20T06:23:42;95265.09;;;9.61;100.00
69570;BME280;56781;42.292;23.146;2023-04-20T06:26:10;95267.06;;;9.69;100.00
69570;BME280;56781;42.292;23.146;2023-04-20T06:28:37;95257.16;;;9.70;100.00
69570;BME280;56781;42.292;23.146;2023-04-20T06:31:05;95263.38;;;9.65;100.00
69570;BME280;56781;42.292;23.146;2023-04-20T06:33:32;95264.00;;;9.98;100.00
69570;BME280;56781;42.292;23.146;2023-04-20T06:35:59;95263.09;;;10.03;100.00
69570;BME280;56781;42.292;23.146;2023-04-20T06:38:26;95261.81;;;10.37;99.06
69570;BME280;56781;42.292;23.146;2023-04-20T06:40:53;95264.59;;;10.54;100.00
69570;BME280;56781;42.292;23.146;2023-04-20T06:43:23;95272.50;;;10.59;100.00
69570;BME280;56781;42.292;23.146;2023-04-20T06:45:50;95259.84;;;10.51;100.00
69570;BME280;56781;42.292;23.146;2023-04-20T06:48:17;95279.44;;;10.60;100.00
69570;BME280;56781;42.292;23.146;2023-04-20T06:50:58;95282.50;;;10.45;98.50
69570;BME280;56781;42.292;23.146;2023-04-20T06:53:26;95291.25;;;10.59;97.95
69570;BME280;56781;42.292;23.146;2023-04-20T06:55:54;95265.34;;;10.46;96.52
69570;BME280;56781;42.292;23.146;2023-04-20T06:58:21;95294.81;;;10.77;95.35
69570;BME280;56781;42.292;23.146;2023-04-20T07:00:48;95295.81;;;10.90;96.03
69570;BME280;56781;42.292;23.146;2023-04-20T07:03:15;95289.03;;;10.84;94.32
69570;BME280;56781;42.292;23.146;2023-04-20T07:05:45;95275.16;;;10.82;92.34
69570;BME280;56781;42.292;23.146;2023-04-20T07:08:12;95267.75;;;11.19;91.85
69570;BME280;56781;42.292;23.146;2023-04-20T07:10:41;95266.38;;;11.30;90.68
69570;BME280;56781;42.292;23.146;2023-04-20T07:13:08;95300.34;;;11.12;88.31
69570;BME280;56781;42.292;23.146;2023-04-20T07:15:36;95269.91;;;10.99;87.53
69570;BME280;56781;42.292;23.146;2023-04-20T07:18:03;95278.53;;;11.36;87.59
69570;BME280;56781;42.292;23.146;2023-04-20T07:20:30;95267.91;;;11.62;86.02
69570;BME280;56781;42.292;23.146;2023-04-20T07:22:57;95292.94;;;11.58;85.92
69570;BME280;56781;42.292;23.146;2023-04-20T07:25:24;95298.34;;;11.75;85.59
69570;BME280;56781;42.292;23.146;2023-04-20T07:27:51;95278.16;;;11.77;80.99
69570;BME280;56781;42.292;23.146;2023-04-20T07:30:18;95292.91;;;12.15;75.22
69570;BME280;56781;42.292;23.146;2023-04-20T07:32:45;95301.13;;;12.27;75.48
69570;BME280;56781;42.292;23.146;2023-04-20T07:35:12;95302.25;;;12.44;75.36
69570;BME280;56781;42.292;23.146;2023-04-20T07:37:40;95303.50;;;12.55;79.83
69570;BME280;56781;42.292;23.146;2023-04-20T07:40:07;95293.69;;;11.89;78.46
69570;BME280;56781;42.292;23.146;2023-04-20T07:42:35;95284.06;;;12.06;76.96
69570;BME280;56781;42.292;23.146;2023-04-20T07:45:04;95297.03;;;12.30;74.50
69570;BME280;56781;42.292;23.146;2023-04-20T07:47:35;95279.19;;;12.16;74.23
69570;BME280;56781;42.292;23.146;2023-04-20T07:50:03;95303.78;;;11.92;73.94
69570;BME280;56781;42.292;23.146;2023-04-20T07:52:31;95293.28;;;11.65;74.32
69570;BME280;56781;42.292;23.146;2023-04-20T07:54:58;95294.69;;;11.53;71.71
69570;BME280;56781;42.292;23.146;2023-04-20T07:57:26;95304.19;;;11.77;71.43
69570;BME280;56781;42.292;23.146;2023-04-20T07:59:53;95278.69;;;11.88;72.45
69570;BME280;56781;42.292;23.146;2023-04-20T08:02:20;95294.31;;;11.95;71.60
69570;BME280;56781;42.292;23.146;2023-04-20T08:04:48;95304.81;;;11.74;72.03
69570;BME280;56781;42.292;23.146;2023-04-20T08:07:16;95282.50;;;11.47;73.28
69570;BME280;56781;42.292;23.146;2023-04-20T08:09:43;95295.16;;;11.64;73.06
69570;BME280;56781;42.292;23.146;2023-04-20T08:12:10;95283.13;;;12.02;73.93
69570;BME280;56781;42.292;23.146;2023-04-20T08:14:37;95302.88;;;12.40;71.89
69570;BME280;56781;42.292;23.146;2023-04-20T08:17:05;95278.41;;;12.33;72.20
69570;BME280;56781;42.292;23.146;2023-04-20T08:19:32;95276.03;;;12.40;72.39
69570;BME280;56781;42.292;23.146;2023-04-20T08:21:59;95303.50;;;12.55;70.44
69570;BME280;56781;42.292;23.146;2023-04-20T08:24:27;95284.53;;;12.42;73.56
69570;BME280;56781;42.292;23.146;2023-04-20T08:26:54;95302.06;;;12.31;72.38
69570;BME280;56781;42.292;23.146;2023-04-20T08:29:22;95269.69;;;12.10;73.40
69570;BME280;56781;42.292;23.146;2023-04-20T08:31:49;95288.50;;;12.19;75.26
69570;BME280;56781;42.292;23.146;2023-04-20T08:34:17;95294.84;;;11.57;79.09
69570;BME280;56781;42.292;23.146;2023-04-20T08:36:44;95277.78;;;11.04;83.67
69570;BME280;56781;42.292;23.146;2023-04-20T08:39:17;95291.53;;;11.12;83.28
69570;BME280;56781;42.292;23.146;2023-04-20T08:41:45;95290.25;;;11.58;77.33
69570;BME280;56781;42.292;23.146;2023-04-20T08:44:13;95286.44;;;11.98;76.92
69570;BME280;56781;42.292;23.146;2023-04-20T08:46:46;95286.59;;;12.28;74.21
69570;BME280;56781;42.292;23.146;2023-04-20T08:49:17;95281.06;;;12.51;74.72
69570;BME280;56781;42.292;23.146;2023-04-20T08:51:46;95277.13;;;12.57;75.67
69570;BME280;56781;42.292;23.146;2023-04-20T08:54:13;95296.53;;;12.62;76.59
69570;BME280;56781;42.292;23.146;2023-04-20T08:56:43;95274.63;;;12.08;77.15
69570;BME280;56781;42.292;23.146;2023-04-20T08:59:11;95279.44;;;11.80;76.83
69570;BME280;56781;42.292;23.146;2023-04-20T09:01:40;95282.81;;;12.20;77.30
69570;BME280;56781;42.292;23.146;2023-04-20T09:04:21;95298.91;;;12.55;76.99
69570;BME280;56781;42.292;23.146;2023-04-20T09:06:51;95278.06;;;12.44;74.81
69570;BME280;56781;42.292;23.146;2023-04-20T09:09:20;95276.94;;;12.62;70.61
69570;BME280;56781;42.292;23.146;2023-04-20T09:12:05;95291.78;;;12.68;72.61
69570;BME280;56781;42.292;23.146;2023-04-20T09:14:43;95275.19;;;12.66;71.11
69570;BME280;56781;42.292;23.146;2023-04-20T09:17:11;95276.91;;;12.79;69.52
69570;BME280;56781;42.292;23.146;2023-04-20T09:19:43;95288.53;;;13.09;72.53
69570;BME280;56781;42.292;23.146;2023-04-20T09:22:10;95292.56;;;13.24;69.57
69570;BME280;56781;42.292;23.146;2023-04-20T09:24:38;95281.94;;;12.98;69.73
69570;BME280;56781;42.292;23.146;2023-04-20T09:27:15;95290.94;;;12.94;69.77
69570;BME280;56781;42.292;23.146;2023-04-20T09:29:42;95281.59;;;13.00;68.26
69570;BME280;56781;42.292;23.146;2023-04-20T09:32:21;95265.94;;;13.02;67.11
69570;BME280;56781;42.292;23.146;2023-04-20T09:34:48;95284.69;;;13.28;69.33
69570;BME280;56781;42.292;23.146;2023-04-20T09:37:16;95280.91;;;13.59;69.41
69570;BME280;56781;42.292;23.146;2023-04-20T09:39:44;95288.50;;;13.57;67.86
69570;BME280;56781;42.292;23.146;2023-04-20T09:42:13;95288.97;;;13.20;65.75
69570;BME280;56781;42.292;23.146;2023-04-20T09:44:41;95276.03;;;13.05;66.46
69570;BME280;56781;42.292;23.146;2023-04-20T09:47:14;95291.84;;;13.06;67.00
69570;BME280;56781;42.292;23.146;2023-04-20T09:49:46;95279.84;;;13.04;66.26
69570;BME280;56781;42.292;23.146;2023-04-20T09:52:17;95273.91;;;13.37;70.25
69570;BME280;56781;42.292;23.146;2023-04-20T09:54:44;95275.75;;;13.45;68.73
69570;BME280;56781;42.292;23.146;2023-04-20T09:57:12;95284.78;;;13.49;67.90
69570;BME280;56781;42.292;23.146;2023-04-20T09:59:42;95281.94;;;13.45;69.20
69570;BME280;56781;42.292;23.146;2023-04-20T10:02:10;95258.28;;;13.21;64.73
69570;BME280;56781;42.292;23.146;2023-04-20T10:04:58;95282.22;;;13.82;66.02
69570;BME280;56781;42.292;23.146;2023-04-20T10:07:29;95275.41;;;14.27;62.30
69570;BME280;56781;42.292;23.146;2023-04-20T10:10:06;95259.06;;;14.11;63.83
69570;BME280;56781;42.292;23.146;2023-04-20T10:12:45;95247.03;;;14.08;62.33
69570;BME280;56781;42.292;23.146;2023-04-20T10:15:12;95259.91;;;14.24;63.10
69570;BME280;56781;42.292;23.146;2023-04-20T10:17:39;95264.25;;;14.58;61.02
69570;BME280;56781;42.292;23.146;2023-04-20T10:20:22;95255.31;;;14.03;62.91
69570;BME280;56781;42.292;23.146;2023-04-20T10:22:50;95260.16;;;13.89;64.11
69570;BME280;56781;42.292;23.146;2023-04-20T10:25:21;95260.09;;;14.39;63.72
69570;BME280;56781;42.292;23.146;2023-04-20T10:27:57;95267.66;;;14.04;63.51
69570;BME280;56781;42.292;23.146;2023-04-20T10:30:25;95263.19;;;14.50;63.91
69570;BME280;56781;42.292;23.146;2023-04-20T10:33:08;95234.56;;;14.91;61.54
69570;BME280;56781;42.292;23.146;2023-04-20T10:35:46;95237.09;;;14.42;62.74
69570;BME280;56781;42.292;23.146;2023-04-20T10:38:14;95249.16;;;14.78;62.52
69570;BME280;56781;42.292;23.146;2023-04-20T10:40:41;95238.31;;;15.36;61.78
69570;BME280;56781;42.292;23.146;2023-04-20T10:43:19;95236.31;;;15.20;61.30
69570;BME280;56781;42.292;23.146;2023-04-20T10:45:48;95241.91;;;15.15;61.22
69570;BME280;56781;42.292;23.146;2023-04-20T10:48:15;95230.44;;;15.30;59.78
69570;BME280;56781;42.292;23.146;2023-04-20T10:50:44;95221.34;;;15.35;61.32
69570;BME280;56781;42.292;23.146;2023-04-20T10:53:21;95233.06;;;15.15;59.67
69570;BME280;56781;42.292;23.146;2023-04-20T10:55:58;95246.69;;;14.85;59.36
69570;BME280;56781;42.292;23.146;2023-04-20T10:58:26;95239.81;;;15.70;60.48
69570;BME280;56781;42.292;23.146;2023-04-20T11:01:00;95226.09;;;15.50;60.17
69570;BME280;56781;42.292;23.146;2023-04-20T11:03:28;95246.53;;;15.51;58.91
69570;BME280;56781;42.292;23.146;2023-04-20T11:05:57;95227.88;;;15.59;60.07
69570;BME280;56781;42.292;23.146;2023-04-20T11:08:40;95219.19;;;16.58;57.63
69570;BME280;56781;42.292;23.146;2023-04-20T11:11:20;95232.53;;;17.43;53.83
69570;BME280;56781;42.292;23.146;2023-04-20T11:13:47;95208.59;;;17.45;55.18
69570;BME280;56781;42.292;23.146;2023-04-20T11:16:16;95211.94;;;16.62;56.21
69570;BME280;56781;42.292;23.146;2023-04-20T11:18:54;95217.47;;;16.10;57.57
69570;BME280;56781;42.292;23.146;2023-04-20T11:21:21;95219.84;;;16.39;56.87
69570;BME280;56781;42.292;23.146;2023-04-20T11:23:49;95214.84;;;16.70;55.65
69570;BME280;56781;42.292;23.146;2023-04-20T11:26:16;95205.31;;;16.60;55.85
69570;BME280;56781;42.292;23.146;2023-04-20T11:28:53;95198.41;;;16.18;56.93
69570;BME280;56781;42.292;23.146;2023-04-20T11:31:21;95217.25;;;16.03;56.71
69570;BME280;56781;42.292;23.146;2023-04-20T11:33:49;95217.03;;;15.95;56.27
69570;BME280;56781;42.292;23.146;2023-04-20T11:36:23;95215.63;;;16.14;58.22
69570;BME280;56781;42.292;23.146;2023-04-20T11:38:53;95209.34;;;17.10;54.71
69570;BME280;56781;42.292;23.146;2023-04-20T11:41:20;95202.19;;;17.02;55.72
69570;BME280;56781;42.292;23.146;2023-04-20T11:43:47;95200.66;;;17.20;55.58
69570;BME280;56781;42.292;23.146;2023-04-20T11:46:16;95214.72;;;16.78;54.66
69570;BME280;56781;42.292;23.146;2023-04-20T11:48:47;95197.44;;;16.55;53.40
69570;BME280;56781;42.292;23.146;2023-04-20T11:51:15;95206.25;;;16.52;55.13
69570;BME280;56781;42.292;23.146;2023-04-20T11:53:42;95198.59;;;16.54;53.66
69570;BME280;56781;42.292;23.146;2023-04-20T11:56:09;95196.84;;;16.90;54.16
69570;BME280;56781;42.292;23.146;2023-04-20T11:58:36;95199.97;;;16.92;54.45
69570;BME280;56781;42.292;23.146;2023-04-20T12:01:04;95205.72;;;16.46;55.14
69570;BME280;56781;42.292;23.146;2023-04-20T12:03:31;95203.47;;;15.80;57.33
69570;BME280;56781;42.292;23.146;2023-04-20T12:05:59;95194.72;;;15.21;57.99
69570;BME280;56781;42.292;23.146;2023-04-20T12:08:26;95165.84;;;14.85;58.65
69570;BME280;56781;42.292;23.146;2023-04-20T12:10:53;95202.69;;;15.55;59.87
69570;BME280;56781;42.292;23.146;2023-04-20T12:13:23;95182.66;;;15.80;56.21
69570;BME280;56781;42.292;23.146;2023-04-20T12:15:51;95173.81;;;16.08;55.59
69570;BME280;56781;42.292;23.146;2023-04-20T12:18:18;95192.09;;;15.86;59.18
69570;BME280;56781;42.292;23.146;2023-04-20T12:20:46;95166.88;;;16.51;56.38
69570;BME280;56781;42.292;23.146;2023-04-20T12:23:13;95169.31;;;15.71;57.02
69570;BME280;56781;42.292;23.146;2023-04-20T12:25:40;95177.03;;;16.13;55.93
69570;BME280;56781;42.292;23.146;2023-04-20T12:28:08;95165.28;;;16.50;55.87
69570;BME280;56781;42.292;23.146;2023-04-20T12:30:35;95145.47;;;16.30;53.43
69570;BME280;56781;42.292;23.146;2023-04-20T12:33:03;95174.63;;;16.68;56.41
69570;BME280;56781;42.292;23.146;2023-04-20T12:35:30;95162.84;;;15.88;56.08
69570;BME280;56781;42.292;23.146;2023-04-20T12:37:57;95149.69;;;16.43;57.55
69570;BME280;56781;42.292;23.146;2023-04-20T12:40:24;95160.44;;;16.27;54.74
69570;BME280;56781;42.292;23.146;2023-04-20T12:42:52;95145.56;;;16.33;56.86
69570;BME280;56781;42.292;23.146;2023-04-20T12:45:19;95146.72;;;16.20;53.46
69570;BME280;56781;42.292;23.146;2023-04-20T12:47:47;95145.91;;;16.92;52.97
69570;BME280;56781;42.292;23.146;2023-04-20T12:50:14;95142.44;;;17.42;56.55
69570;BME280;56781;42.292;23.146;2023-04-20T12:52:41;95139.28;;;17.05;54.08
69570;BME280;56781;42.292;23.146;2023-04-20T12:55:08;95131.47;;;17.19;50.95
69570;BME280;56781;42.292;23.146;2023-04-20T12:57:37;95151.56;;;16.27;50.76
69570;BME280;56781;42.292;23.146;2023-04-20T13:00:05;95116.66;;;17.13;50.77
69570;BME280;56781;42.292;23.146;2023-04-20T13:02:32;95122.38;;;17.79;47.69
69570;BME280;56781;42.292;23.146;2023-04-20T13:05:00;95119.53;;;18.10;46.33
69570;BME280;56781;42.292;23.146;2023-04-20T13:07:27;95119.41;;;18.26;45.56
69570;BME280;56781;42.292;23.146;2023-04-20T13:09:54;95110.41;;;18.65;48.66